createdAt,value
2022-12-29T00:01:01.276Z,1.83
2022-12-29T00:03:30.311Z,1.80
2022-12-29T00:05:58.546Z,1.75
2022-12-29T00:08:40.391Z,1.80
2022-12-29T00:11:15.994Z,1.70
2022-12-29T00:14:01.195Z,1.83
2022-12-29T00:16:28.906Z,1.40
2022-12-29T00:18:58.308Z,1.63
2022-12-29T00:21:44.648Z,1.60
2022-12-29T00:24:26.980Z,1.40
2022-12-29T00:27:17.697Z,1.20
2022-12-29T00:30:03.159Z,1.00
2022-12-29T00:32:50.798Z,1.00
2022-12-29T00:35:32.924Z,1.00
2022-12-29T00:38:23.176Z,0.90
2022-12-29T00:41:10.509Z,0.90
2022-12-29T00:43:58.197Z,0.68
2022-12-29T00:46:27.035Z,0.50
2022-12-29T00:49:12.208Z,0.70
2022-12-29T00:51:38.773Z,0.80
2022-12-29T00:54:05.383Z,0.60
2022-12-29T00:56:31.951Z,0.60
2022-12-29T00:59:06.985Z,0.70
2022-12-29T01:01:34.580Z,0.80
2022-12-29T01:04:04.082Z,0.75
2022-12-29T01:06:31.267Z,0.80
2022-12-29T01:09:16.470Z,0.65
2022-12-29T01:11:43.051Z,0.73
2022-12-29T01:14:09.722Z,0.88
2022-12-29T01:16:37.483Z,0.98
2022-12-29T01:19:06.933Z,1.00
2022-12-29T01:21:34.313Z,1.30
2022-12-29T01:24:03.546Z,1.30
2022-12-29T01:26:32.439Z,1.27
2022-12-29T01:29:00.293Z,1.00
2022-12-29T01:31:26.883Z,1.30
2022-12-29T01:33:53.530Z,1.23
2022-12-29T01:36:20.364Z,1.20
2022-12-29T01:38:49.267Z,1.08
2022-12-29T01:41:17.334Z,1.10
2022-12-29T01:43:48.813Z,0.93
2022-12-29T01:46:15.655Z,0.90
2022-12-29T01:48:44.061Z,0.85
2022-12-29T01:51:10.916Z,0.80
2022-12-29T01:53:38.165Z,0.80
2022-12-29T01:56:10.130Z,0.85
2022-12-29T01:58:40.936Z,0.65
2022-12-29T02:01:10.344Z,0.55
2022-12-29T02:03:42.088Z,0.73
2022-12-29T02:06:23.942Z,0.88
2022-12-29T02:08:53.484Z,0.60
2022-12-29T02:11:20.952Z,0.68
2022-12-29T02:13:47.633Z,0.60
2022-12-29T02:16:14.193Z,0.60
2022-12-29T02:19:01.541Z,0.70
2022-12-29T02:21:43.372Z,0.52
2022-12-29T02:24:40.923Z,0.60
2022-12-29T02:27:29.429Z,0.45
2022-12-29T02:30:08.830Z,0.65
2022-12-29T02:32:59.653Z,0.70
2022-12-29T02:36:03.445Z,0.63
2022-12-29T02:38:54.506Z,0.60
2022-12-29T02:41:29.834Z,0.50
2022-12-29T02:44:04.953Z,0.60
2022-12-29T02:47:17.481Z,0.57
2022-12-29T02:50:09.987Z,0.90
2022-12-29T02:52:45.938Z,0.60
2022-12-29T02:55:12.828Z,0.65
2022-12-29T02:57:41.518Z,0.60
2022-12-29T03:00:28.460Z,0.60
2022-12-29T03:03:05.208Z,0.90
2022-12-29T03:05:59.338Z,0.50
2022-12-29T03:08:41.640Z,0.60
2022-12-29T03:11:31.635Z,0.43
2022-12-29T03:14:20.878Z,0.70
2022-12-29T03:17:15.548Z,0.40
2022-12-29T03:19:52.517Z,0.70
2022-12-29T03:22:32.375Z,0.50
2022-12-29T03:25:13.876Z,0.40
2022-12-29T03:27:48.474Z,0.60
2022-12-29T03:30:15.890Z,0.40
2022-12-29T03:32:56.625Z,0.60
2022-12-29T03:35:27.078Z,0.50
2022-12-29T03:38:07.431Z,0.60
2022-12-29T03:40:35.505Z,0.40
2022-12-29T03:43:04.150Z,0.50
2022-12-29T03:45:30.648Z,0.70
2022-12-29T03:47:59.596Z,0.70
2022-12-29T03:50:26.132Z,0.68
2022-12-29T03:52:52.683Z,0.52
2022-12-29T03:55:19.284Z,0.75
2022-12-29T03:57:45.948Z,0.50
2022-12-29T04:00:13.201Z,0.73
2022-12-29T04:02:42.695Z,0.60
2022-12-29T04:05:09.605Z,0.65
2022-12-29T04:07:36.233Z,0.60
2022-12-29T04:10:03.164Z,0.50
2022-12-29T04:12:29.727Z,0.63
2022-12-29T04:14:56.315Z,0.63
2022-12-29T04:17:22.881Z,0.50
2022-12-29T04:19:49.611Z,0.55
2022-12-29T04:22:16.255Z,0.60
2022-12-29T04:24:44.931Z,0.90
2022-12-29T04:27:11.536Z,1.00
2022-12-29T04:29:40.412Z,0.60
2022-12-29T04:32:06.945Z,0.57
2022-12-29T04:34:34.116Z,0.63
2022-12-29T04:37:00.676Z,0.60
2022-12-29T04:39:27.275Z,0.80
2022-12-29T04:41:53.845Z,0.77
2022-12-29T04:44:22.647Z,0.82
2022-12-29T04:46:49.296Z,0.80
2022-12-29T04:49:15.954Z,0.75
2022-12-29T04:51:42.559Z,0.70
2022-12-29T04:54:11.319Z,0.93
2022-12-29T04:56:37.925Z,1.05
2022-12-29T04:59:04.567Z,0.93
2022-12-29T05:01:33.711Z,0.80
2022-12-29T05:04:00.787Z,0.60
2022-12-29T05:06:27.339Z,0.90
2022-12-29T05:08:56.405Z,0.90
2022-12-29T05:11:23.010Z,1.17
2022-12-29T05:13:49.575Z,0.80
2022-12-29T05:16:16.111Z,0.80
2022-12-29T05:18:42.719Z,0.88
2022-12-29T05:21:09.348Z,0.95
2022-12-29T05:23:35.917Z,1.05
2022-12-29T05:26:02.489Z,1.05
2022-12-29T05:28:31.501Z,0.80
2022-12-29T05:30:58.082Z,0.93
2022-12-29T05:33:27.050Z,0.98
2022-12-29T05:35:55.851Z,0.93
2022-12-29T05:38:22.532Z,1.17
2022-12-29T05:40:49.115Z,1.45
2022-12-29T05:43:15.710Z,1.08
2022-12-29T05:45:42.329Z,1.20
2022-12-29T05:48:11.087Z,0.70
2022-12-29T05:50:37.915Z,0.70
2022-12-29T05:53:04.492Z,0.90
2022-12-29T05:55:31.027Z,1.17
2022-12-29T05:57:57.662Z,1.83
2022-12-29T06:00:24.496Z,1.17
2022-12-29T06:02:51.508Z,0.95
2022-12-29T06:05:18.469Z,0.75
2022-12-29T06:07:47.466Z,1.10
2022-12-29T06:10:16.484Z,1.00
2022-12-29T06:12:43.245Z,0.93
2022-12-29T06:15:12.381Z,0.73
2022-12-29T06:17:39.002Z,0.85
2022-12-29T06:20:08.350Z,0.70
2022-12-29T06:22:35.266Z,0.75
2022-12-29T06:25:05.428Z,0.90
2022-12-29T06:27:34.641Z,0.77
2022-12-29T06:30:01.271Z,0.55
2022-12-29T06:32:28.025Z,0.85
2022-12-29T06:34:56.646Z,1.00
2022-12-29T06:37:23.177Z,0.80
2022-12-29T06:39:52.136Z,1.02
2022-12-29T06:42:20.898Z,1.35
2022-12-29T06:44:47.515Z,1.40
2022-12-29T06:47:16.422Z,0.70
2022-12-29T06:49:43.073Z,0.73
2022-12-29T06:52:12.914Z,0.85
2022-12-29T06:54:42.408Z,0.82
2022-12-29T06:57:13.798Z,0.85
2022-12-29T06:59:45.279Z,0.70
2022-12-29T07:02:12.692Z,0.57
2022-12-29T07:04:39.365Z,0.75
2022-12-29T07:07:06.025Z,0.60
2022-12-29T07:09:32.772Z,0.80
2022-12-29T07:11:59.566Z,0.90
2022-12-29T07:14:26.127Z,0.90
2022-12-29T07:16:54.920Z,0.75
2022-12-29T07:19:21.560Z,0.77
2022-12-29T07:21:48.477Z,0.77
2022-12-29T07:24:15.070Z,1.83
2022-12-29T07:26:42.810Z,0.80
2022-12-29T07:29:09.374Z,1.08
2022-12-29T07:31:35.951Z,1.05
2022-12-29T07:34:02.598Z,1.00
2022-12-29T07:36:34.645Z,1.00
2022-12-29T07:39:02.001Z,1.15
2022-12-29T07:41:28.576Z,0.90
2022-12-29T07:43:55.350Z,1.10
2022-12-29T07:46:56.635Z,1.15
2022-12-29T07:49:10.855Z,1.48
2022-12-29T07:51:39.954Z,0.90
2022-12-29T07:54:06.496Z,1.13
2022-12-29T07:56:33.078Z,1.60
2022-12-29T07:58:59.621Z,1.13
2022-12-29T08:01:26.291Z,1.20
2022-12-29T08:03:57.252Z,1.67
2022-12-29T08:06:24.421Z,1.30
2022-12-29T08:08:53.427Z,0.75
2022-12-29T08:11:20.375Z,1.23
2022-12-29T08:13:47.020Z,1.23
2022-12-29T08:16:15.878Z,1.00
2022-12-29T08:18:42.641Z,1.65
2022-12-29T08:21:09.397Z,1.23
2022-12-29T08:23:35.959Z,1.00
2022-12-29T08:26:08.385Z,1.23
2022-12-29T08:28:34.988Z,1.92
2022-12-29T08:31:02.992Z,1.20
2022-12-29T08:33:30.350Z,1.15
2022-12-29T08:36:06.489Z,0.73
2022-12-29T08:38:33.591Z,1.15
2022-12-29T08:41:02.047Z,1.17
2022-12-29T08:43:29.458Z,1.17
2022-12-29T08:45:57.157Z,1.42
2022-12-29T08:48:32.230Z,1.45
2022-12-29T08:51:01.674Z,1.10
2022-12-29T08:53:28.399Z,1.27
2022-12-29T08:56:05.137Z,1.33
2022-12-29T08:58:33.167Z,1.13
2022-12-29T09:01:00.374Z,1.20
2022-12-29T09:04:03.808Z,1.25
2022-12-29T09:06:15.098Z,1.27
2022-12-29T09:08:44.804Z,1.35
2022-12-29T09:11:23.257Z,1.38
2022-12-29T09:13:50.184Z,1.20
2022-12-29T09:16:17.591Z,1.55
2022-12-29T09:18:46.842Z,0.95
2022-12-29T09:21:14.303Z,1.10
2022-12-29T09:23:41.579Z,1.30
2022-12-29T09:26:09.408Z,1.20
2022-12-29T09:28:36.321Z,1.17
2022-12-29T09:31:05.350Z,0.90
2022-12-29T09:33:34.392Z,1.40
2022-12-29T09:36:01.137Z,1.52
2022-12-29T09:38:29.179Z,1.23
2022-12-29T09:41:02.122Z,1.27
2022-12-29T09:43:47.201Z,1.55
2022-12-29T09:46:24.781Z,1.40
2022-12-29T09:49:08.922Z,1.60
2022-12-29T09:51:42.316Z,1.45
2022-12-29T09:54:55.164Z,1.38
2022-12-29T09:57:35.970Z,1.58
2022-12-29T10:00:13.222Z,0.80
2022-12-29T10:02:47.557Z,1.73
2022-12-29T10:05:25.563Z,1.10
2022-12-29T10:07:55.044Z,1.02
2022-12-29T10:10:31.130Z,1.27
2022-12-29T10:13:14.363Z,1.13
2022-12-29T10:16:21.116Z,1.20
2022-12-29T10:19:18.745Z,1.45
2022-12-29T10:21:54.315Z,1.23
2022-12-29T10:24:22.980Z,1.15
2022-12-29T10:26:52.776Z,1.30
2022-12-29T10:29:27.678Z,1.65
2022-12-29T10:32:27.840Z,1.20
2022-12-29T10:34:59.884Z,1.30
2022-12-29T10:38:02.339Z,1.08
2022-12-29T10:41:16.240Z,1.33
2022-12-29T10:43:47.775Z,1.02
2022-12-29T10:46:19.321Z,1.38
2022-12-29T10:48:47.667Z,1.90
2022-12-29T10:51:37.962Z,1.70
2022-12-29T10:54:11.827Z,1.70
2022-12-29T10:56:45.438Z,1.73
2022-12-29T10:59:17.452Z,1.75
2022-12-29T11:02:10.054Z,1.77
2022-12-29T11:04:49.182Z,1.27
2022-12-29T11:07:20.987Z,1.25
2022-12-29T11:09:55.104Z,1.75
2022-12-29T11:12:32.035Z,1.58
2022-12-29T11:15:08.554Z,1.85
2022-12-29T11:17:55.074Z,1.85
2022-12-29T11:20:39.544Z,1.80
2022-12-29T11:23:34.600Z,1.58
2022-12-29T11:26:11.912Z,1.35
2022-12-29T11:28:43.462Z,1.52
2022-12-29T11:31:11.025Z,1.27
2022-12-29T11:33:39.504Z,1.60
2022-12-29T11:36:14.775Z,1.55
2022-12-29T11:38:44.030Z,1.50
2022-12-29T11:41:20.864Z,2.50
2022-12-29T11:43:48.593Z,1.83
2022-12-29T11:46:22.673Z,2.13
2022-12-29T11:48:53.406Z,2.00
2022-12-29T11:51:44.510Z,1.50
2022-12-29T11:54:20.224Z,2.17
2022-12-29T11:56:47.367Z,2.25
2022-12-29T11:59:39.174Z,1.83
2022-12-29T12:02:21.232Z,2.10
2022-12-29T12:04:52.087Z,2.17
2022-12-29T12:07:30.694Z,2.10
2022-12-29T12:10:07.912Z,1.40
2022-12-29T12:13:15.290Z,2.10
2022-12-29T12:15:51.251Z,1.52
2022-12-29T12:18:39.180Z,1.65
2022-12-29T12:21:14.018Z,1.73
2022-12-29T12:24:04.982Z,1.20
2022-12-29T12:26:47.444Z,2.35
2022-12-29T12:29:27.472Z,1.90
2022-12-29T12:32:19.805Z,2.20
2022-12-29T12:34:47.836Z,1.45
2022-12-29T12:37:29.553Z,1.63
2022-12-29T12:39:56.107Z,2.22
2022-12-29T12:42:28.600Z,1.95
2022-12-29T12:45:25.954Z,1.50
2022-12-29T12:48:23.882Z,1.65
2022-12-29T12:51:36.142Z,1.50
2022-12-29T12:54:31.661Z,1.42
2022-12-29T12:57:12.781Z,1.48
2022-12-29T12:59:48.279Z,1.50
2022-12-29T13:02:57.007Z,1.67
2022-12-29T13:05:32.428Z,1.60
2022-12-29T13:08:17.573Z,1.70
2022-12-29T13:10:56.233Z,1.70
2022-12-29T13:13:56.660Z,1.77
2022-12-29T13:16:55.255Z,1.42
2022-12-29T13:19:27.529Z,1.60
2022-12-29T13:22:09.055Z,1.65
2022-12-29T13:24:58.807Z,1.33
2022-12-29T13:27:25.364Z,1.75
2022-12-29T13:30:03.910Z,1.38
2022-12-29T13:32:42.816Z,1.05
2022-12-29T13:35:18.384Z,0.90
2022-12-29T13:38:01.984Z,1.20
2022-12-29T13:40:35.564Z,0.80
2022-12-29T13:43:04.836Z,0.77
2022-12-29T13:45:34.279Z,0.68
2022-12-29T13:48:06.893Z,0.82
2022-12-29T13:50:39.572Z,0.90
2022-12-29T13:53:25.578Z,1.10
2022-12-29T13:56:11.183Z,0.80
2022-12-29T13:58:43.070Z,1.05
2022-12-29T14:01:16.205Z,1.20
2022-12-29T14:03:54.024Z,1.30
2022-12-29T14:06:23.886Z,1.20
2022-12-29T14:08:53.238Z,1.10
2022-12-29T14:11:31.041Z,1.65
2022-12-29T14:14:00.677Z,1.40
2022-12-29T14:16:34.096Z,1.60
2022-12-29T14:19:25.571Z,1.30
2022-12-29T14:22:13.656Z,1.40
2022-12-29T14:24:46.694Z,1.58
2022-12-29T14:27:13.207Z,1.33
2022-12-29T14:29:39.637Z,1.10
2022-12-29T14:32:21.560Z,1.67
2022-12-29T14:34:52.461Z,1.52
2022-12-29T14:37:31.128Z,1.33
2022-12-29T14:40:15.852Z,1.77
2022-12-29T14:42:43.376Z,1.70
2022-12-29T14:45:11.194Z,1.70
2022-12-29T14:47:39.887Z,1.42
2022-12-29T14:50:14.552Z,1.63
2022-12-29T14:52:54.148Z,1.80
2022-12-29T14:55:43.426Z,2.55
2022-12-29T14:58:21.859Z,1.30
2022-12-29T15:00:49.595Z,1.58
2022-12-29T15:03:24.759Z,1.27
2022-12-29T15:06:10.076Z,2.08
2022-12-29T15:08:41.525Z,1.88
2022-12-29T15:11:21.433Z,1.60
2022-12-29T15:13:49.777Z,1.95
2022-12-29T15:16:32.395Z,1.60
2022-12-29T15:18:59.999Z,1.73
2022-12-29T15:21:31.902Z,1.83
2022-12-29T15:23:58.936Z,2.10
2022-12-29T15:26:39.298Z,1.40
2022-12-29T15:29:06.246Z,1.73
2022-12-29T15:31:32.806Z,1.52
2022-12-29T15:34:13.287Z,2.17
2022-12-29T15:36:41.522Z,1.60
2022-12-29T15:39:34.766Z,1.60
2022-12-29T15:42:11.524Z,1.90
2022-12-29T15:44:44.504Z,1.85
2022-12-29T15:47:19.261Z,1.85
2022-12-29T15:49:49.813Z,1.30
2022-12-29T15:52:21.945Z,1.27
2022-12-29T15:54:54.479Z,1.27
2022-12-29T15:57:27.361Z,1.27
2022-12-29T15:59:57.733Z,1.38
2022-12-29T16:02:27.711Z,1.35
2022-12-29T16:05:17.323Z,1.08
2022-12-29T16:07:56.223Z,1.00
2022-12-29T16:10:37.286Z,1.15
2022-12-29T16:13:23.691Z,1.17
2022-12-29T16:15:53.333Z,1.10
2022-12-29T16:18:35.272Z,1.40
2022-12-29T16:21:04.445Z,1.20
2022-12-29T16:23:33.319Z,1.15
2022-12-29T16:26:00.697Z,1.08
2022-12-29T16:28:44.220Z,1.27
2022-12-29T16:31:35.084Z,1.20
2022-12-29T16:34:24.444Z,1.25
2022-12-29T16:36:59.518Z,1.42
2022-12-29T16:39:32.023Z,1.10
2022-12-29T16:41:59.046Z,0.93
2022-12-29T16:44:28.320Z,1.08
2022-12-29T16:47:06.134Z,1.13
2022-12-29T16:49:37.639Z,1.08
2022-12-29T16:52:35.234Z,1.10
2022-12-29T16:55:02.717Z,0.98
2022-12-29T16:57:37.546Z,0.85
2022-12-29T17:00:08.907Z,1.17
2022-12-29T17:02:45.659Z,1.17
2022-12-29T17:05:17.091Z,1.33
2022-12-29T17:07:44.140Z,1.05
2022-12-29T17:10:11.471Z,0.93
2022-12-29T17:12:38.140Z,1.02
2022-12-29T17:15:09.375Z,1.65
2022-12-29T17:17:42.295Z,0.90
2022-12-29T17:20:16.656Z,1.00
2022-12-29T17:22:43.531Z,1.30
2022-12-29T17:25:18.706Z,1.10
2022-12-29T17:27:58.977Z,1.20
2022-12-29T17:30:33.156Z,1.85
2022-12-29T17:33:08.832Z,1.40
2022-12-29T17:35:35.676Z,1.13
2022-12-29T17:38:02.296Z,1.23
2022-12-29T17:40:32.194Z,1.20
2022-12-29T17:43:00.359Z,1.23
2022-12-29T17:45:32.175Z,1.70
2022-12-29T17:48:01.958Z,1.55
2022-12-29T17:50:32.866Z,1.70
2022-12-29T17:53:08.758Z,1.50
2022-12-29T17:55:38.429Z,1.05
2022-12-29T17:58:32.762Z,2.17
2022-12-29T18:01:03.457Z,1.60
2022-12-29T18:03:32.399Z,1.67
2022-12-29T18:06:01.854Z,2.40
2022-12-29T18:08:31.213Z,1.58
2022-12-29T18:10:57.969Z,1.38
2022-12-29T18:13:33.715Z,1.75
2022-12-29T18:16:10.871Z,2.00
2022-12-29T18:18:39.533Z,2.03
2022-12-29T18:21:14.246Z,1.77
2022-12-29T18:23:40.770Z,1.58
2022-12-29T18:26:25.467Z,1.75
2022-12-29T18:28:53.909Z,1.73
2022-12-29T18:31:32.179Z,1.35
2022-12-29T18:34:01.372Z,1.65
2022-12-29T18:36:30.447Z,2.15
2022-12-29T18:38:57.033Z,1.67
2022-12-29T18:41:30.270Z,1.65
2022-12-29T18:43:57.768Z,1.38
2022-12-29T18:46:26.849Z,1.80
2022-12-29T18:48:53.905Z,1.88
2022-12-29T18:51:24.878Z,2.03
2022-12-29T18:53:55.370Z,1.92
2022-12-29T18:56:24.298Z,1.70
2022-12-29T18:58:51.648Z,2.63
2022-12-29T19:01:27.803Z,2.33
2022-12-29T19:03:54.792Z,2.33
2022-12-29T19:06:23.950Z,2.22
2022-12-29T19:08:50.557Z,2.53
2022-12-29T19:11:19.573Z,2.15
2022-12-29T19:13:46.224Z,2.00
2022-12-29T19:16:19.515Z,2.22
2022-12-29T19:18:53.330Z,2.30
2022-12-29T19:21:27.717Z,2.47
2022-12-29T19:23:54.267Z,2.40
2022-12-29T19:26:34.422Z,2.15
2022-12-29T19:29:01.728Z,3.17
2022-12-29T19:31:28.654Z,2.60
2022-12-29T19:33:55.275Z,2.30
2022-12-29T19:36:22.233Z,2.60
2022-12-29T19:38:51.360Z,2.53
2022-12-29T19:41:18.011Z,1.85
2022-12-29T19:43:47.054Z,2.35
2022-12-29T19:46:18.062Z,2.25
2022-12-29T19:48:49.493Z,2.90
2022-12-29T19:51:17.270Z,2.33
2022-12-29T19:53:45.557Z,2.20
2022-12-29T19:56:14.916Z,2.00
2022-12-29T19:58:47.516Z,2.53
2022-12-29T20:01:24.003Z,2.35
2022-12-29T20:03:50.759Z,2.00
2022-12-29T20:06:17.585Z,2.42
2022-12-29T20:08:44.576Z,2.40
2022-12-29T20:11:16.817Z,2.60
2022-12-29T20:13:46.308Z,2.70
2022-12-29T20:16:16.191Z,2.38
2022-12-29T20:18:43.268Z,2.85
2022-12-29T20:21:15.648Z,2.28
2022-12-29T20:23:43.280Z,2.30
2022-12-29T20:26:16.915Z,2.33
2022-12-29T20:28:43.543Z,2.30
2022-12-29T20:31:38.266Z,3.05
2022-12-29T20:34:07.436Z,2.38
2022-12-29T20:36:36.520Z,1.98
2022-12-29T20:39:06.638Z,3.20
2022-12-29T20:41:33.717Z,2.97
2022-12-29T20:44:00.862Z,1.95
2022-12-29T20:46:35.036Z,1.92
2022-12-29T20:49:08.640Z,2.33
2022-12-29T20:52:04.560Z,2.63
2022-12-29T20:54:31.706Z,2.47
2022-12-29T20:57:00.782Z,2.25
2022-12-29T20:59:28.344Z,2.38
2022-12-29T21:01:56.248Z,2.45
2022-12-29T21:04:23.114Z,2.30
2022-12-29T21:06:49.665Z,2.28
2022-12-29T21:09:16.281Z,2.72
2022-12-29T21:11:42.872Z,3.22
2022-12-29T21:14:09.657Z,2.95
2022-12-29T21:16:38.578Z,2.65
2022-12-29T21:19:05.616Z,2.03
2022-12-29T21:21:32.258Z,2.53
2022-12-29T21:24:05.452Z,2.10
2022-12-29T21:26:33.681Z,1.90
2022-12-29T21:29:01.249Z,1.85
2022-12-29T21:31:36.448Z,2.13
2022-12-29T21:34:06.621Z,2.28
2022-12-29T21:36:33.548Z,2.55
2022-12-29T21:39:00.635Z,2.05
2022-12-29T21:41:27.211Z,2.38
2022-12-29T21:44:12.347Z,1.92
2022-12-29T21:46:40.939Z,2.00
2022-12-29T21:49:08.276Z,1.45
2022-12-29T21:51:54.211Z,1.80
2022-12-29T21:54:47.601Z,2.40
2022-12-29T21:57:39.991Z,2.40
2022-12-29T22:00:27.882Z,1.85
2022-12-29T22:03:22.007Z,2.08
2022-12-29T22:06:08.578Z,1.90
2022-12-29T22:08:57.224Z,1.52
2022-12-29T22:11:42.346Z,2.05
2022-12-29T22:14:11.878Z,2.47
2022-12-29T22:16:38.564Z,2.10
2022-12-29T22:19:08.727Z,2.38
2022-12-29T22:21:35.317Z,1.67
2022-12-29T22:24:04.281Z,2.28
2022-12-29T22:26:30.970Z,2.00
2022-12-29T22:29:00.075Z,2.30
2022-12-29T22:31:30.548Z,1.95
2022-12-29T22:33:58.773Z,2.47
2022-12-29T22:36:26.615Z,2.20
2022-12-29T22:38:53.217Z,1.98
2022-12-29T22:41:23.064Z,1.95
2022-12-29T22:43:59.478Z,2.40
2022-12-29T22:46:30.978Z,2.22
2022-12-29T22:48:57.830Z,1.98
2022-12-29T22:51:24.479Z,2.22
2022-12-29T22:53:51.419Z,2.17
2022-12-29T22:56:18.232Z,1.83
2022-12-29T22:58:47.130Z,2.10
2022-12-29T23:01:16.102Z,1.73
2022-12-29T23:03:43.114Z,2.25
2022-12-29T23:06:14.895Z,1.55
2022-12-29T23:08:43.679Z,2.10
2022-12-29T23:11:12.649Z,2.13
2022-12-29T23:13:41.091Z,1.88
2022-12-29T23:16:08.197Z,1.50
2022-12-29T23:18:34.856Z,1.80
2022-12-29T23:21:01.491Z,1.90
2022-12-29T23:23:49.615Z,2.63
2022-12-29T23:26:18.653Z,2.50
2022-12-29T23:28:45.450Z,1.70
2022-12-29T23:31:12.094Z,1.88
2022-12-29T23:33:40.955Z,1.63
2022-12-29T23:36:08.164Z,1.60
2022-12-29T23:38:34.725Z,2.10
2022-12-29T23:41:01.253Z,1.50
2022-12-29T23:43:27.846Z,1.63
2022-12-29T23:45:54.471Z,1.50
2022-12-29T23:48:21.155Z,2.53
2022-12-29T23:50:47.808Z,1.67
2022-12-29T23:53:16.706Z,2.05
2022-12-29T23:55:43.957Z,1.60
2022-12-29T23:58:11.002Z,2.00
